CDT,Max TemperatureF,Mean TemperatureF,Min TemperatureF,Max Dew PointF,MeanDew PointF,Min DewpointF,Max Humidity, Mean Humidity, Min Humidity, Max Sea Level PressureIn, Mean Sea Level PressureIn, Min Sea Level PressureIn, Max VisibilityMiles, Mean VisibilityMiles, Min VisibilityMiles, Max Wind SpeedMPH, Mean Wind SpeedMPH, Max Gust SpeedMPH,PrecipitationIn, CloudCover, Events, WindDirDegrees
2014-8-1,81,68,55,67,60,55,99,79,50,30.12,30.09,30.06,10,9,2,6,1,,0.00,1,,335
2014-8-2,83,69,55,68,62,55,98,76,47,30.18,30.13,30.09,10,9,5,7,1,,0.00,1,,132
2014-8-3,84,73,62,70,65,61,97,76,51,30.14,30.10,30.04,10,10,7,9,4,,0.00,1,,162
2014-8-4,84,72,61,70,66,61,97,80,56,30.08,30.05,30.01,10,9,2,7,1,,0.00,1,,121
2014-8-5,78,70,63,69,66,62,98,87,71,30.11,30.07,30.03,10,9,3,7,2,,0.00,2,Rain,12
2014-8-6,69,68,66,67,66,66,98,96,88,30.07,30.03,30.00,10,4,1,12,6,16,2.35,8,Rain,107
2014-8-7,69,68,67,68,67,66,98,96,94,30.00,29.98,29.96,5,3,1,9,6,16,0.26,8,Rain,93
2014-8-8,78,71,64,67,65,64,98,83,65,30.06,30.02,30.00,10,8,2,10,4,,0.00,5,,86
2014-8-9,77,71,65,68,65,63,96,83,66,30.08,30.05,30.02,10,9,4,12,5,17,0.00,5,,112
2014-8-10,76,70,63,69,66,62,98,89,69,30.07,30.04,30.01,10,7,2,6,1,,0.00,4,,181
2014-8-11,76,70,64,66,62,57,98,77,53,30.06,30.04,30.01,10,8,3,17,7,25,0.00,2,,321
2014-8-12,75,64,54,59,55,52,95,74,45,30.11,30.08,30.06,10,10,10,14,6,20,0.00,2,,319
2014-8-13,78,66,53,65,57,52,97,75,48,30.16,30.11,30.08,10,10,10,7,5,,0.00,0,,291
2014-8-14,80,67,54,68,61,54,98,80,52,30.13,30.07,29.99,10,10,1,7,2,,0.00,0,,156
2014-8-15,70,68,65,68,66,65,98,94,86,30.03,29.96,29.89,10,9,2,14,5,20,0.34,5,Rain,139
2014-8-16,79,72,64,71,67,64,98,88,71,29.93,29.88,29.86,10,8,2,10,5,,0.00,6,,79
2014-8-17,83,72,60,72,67,60,99,87,61,30.00,29.95,29.90,10,7,0,7,2,,0.00,4,Fog,183
2014-8-18,85,76,67,70,68,65,98,81,51,29.97,29.83,29.74,10,8,2,10,6,,0.00,1,,213
2014-8-19,82,73,64,70,66,63,97,80,51,29.83,29.79,29.74,10,10,10,7,4,,0.00,0,,286
2014-8-20,81,72,63,74,68,63,98,92,75,29.93,29.85,29.81,10,9,1,20,4,45,2.45,2,Rain,151
2014-8-21,85,78,71,76,73,70,98,86,69,29.89,29.84,29.77,10,9,4,16,7,23,0.03,2,Rain,176
2014-8-22,86,78,69,78,73,68,97,88,70,29.96,29.92,29.85,10,9,3,18,3,37,0.19,2,Rain,206
2014-8-23,86,78,70,78,73,68,98,89,71,29.96,29.90,29.84,10,8,0,14,5,23,0.55,4,Fog-Rain,128
2014-8-24,89,80,71,77,73,70,97,82,59,29.89,29.86,29.83,10,9,5,14,7,18,0.00,2,,162
2014-8-25,84,76,68,75,70,65,98,81,57,30.06,29.97,29.88,10,9,4,12,3,17,0.00,1,,346
2014-8-26,76,70,63,67,64,62,97,84,64,30.21,30.14,30.04,10,10,1,14,5,23,0.96,3,Rain,27
2014-8-27,73,69,65,69,66,64,97,90,80,30.19,30.14,30.08,10,10,3,8,3,,0.05,5,Rain,90
2014-8-28,78,72,66,73,69,65,99,93,82,30.09,29.98,29.87,10,8,2,13,6,17,0.83,7,Rain,130
2014-8-29,79,72,65,72,68,64,99,90,70,29.93,29.83,29.77,10,8,2,12,7,16,0.65,5,Rain,184
2014-8-30,77,70,62,68,66,62,99,90,64,29.92,29.88,29.81,10,9,1,8,5,,0.09,5,Rain,263
2014-8-31,84,72,61,74,67,61,99,88,60,29.89,29.80,29.63,10,7,0,25,7,55,1.30,2,Fog-Rain,161